sensor_id;sensor_type;location;lat;lon;timestamp;pressure;altitude;pressure_sealevel;temperature;humidity
55277;BME280;41136;51.478;-2.610;2023-08-08T00:00:44;100931.90;;;17.16;100.00
55277;BME280;41136;51.478;-2.610;2023-08-08T00:03:09;100930.79;;;16.97;100.00
55277;BME280;41136;51.478;-2.610;2023-08-08T00:05:34;100925.51;;;17.19;100.00
55277;BME280;41136;51.478;-2.610;2023-08-08T00:08:00;100925.31;;;16.82;100.00
55277;BME280;41136;51.478;-2.610;2023-08-08T00:10:25;100926.13;;;17.00;100.00
55277;BME280;41136;51.478;-2.610;2023-08-08T00:12:50;100923.96;;;16.91;100.00
55277;BME280;41136;51.478;-2.610;2023-08-08T00:15:16;100926.61;;;16.65;100.00
55277;BME280;41136;51.478;-2.610;2023-08-08T00:17:41;100930.46;;;15.96;100.00
55277;BME280;41136;51.478;-2.610;2023-08-08T00:20:07;100926.48;;;16.65;100.00
55277;BME280;41136;51.478;-2.610;2023-08-08T00:22:31;100922.54;;;16.47;100.00
55277;BME280;41136;51.478;-2.610;2023-08-08T00:24:57;100918.76;;;16.33;100.00
55277;BME280;41136;51.478;-2.610;2023-08-08T00:27:23;100909.16;;;16.50;100.00
55277;BME280;41136;51.478;-2.610;2023-08-08T00:29:47;100898.84;;;16.59;100.00
55277;BME280;41136;51.478;-2.610;2023-08-08T00:32:13;100895.23;;;17.31;100.00
55277;BME280;41136;51.478;-2.610;2023-08-08T00:34:38;100893.17;;;16.87;100.00
55277;BME280;41136;51.478;-2.610;2023-08-08T00:37:03;100891.85;;;17.20;100.00
55277;BME280;41136;51.478;-2.610;2023-08-08T00:39:28;100881.05;;;17.16;100.00
55277;BME280;41136;51.478;-2.610;2023-08-08T00:41:54;100881.23;;;16.79;100.00
55277;BME280;41136;51.478;-2.610;2023-08-08T00:44:19;100882.21;;;16.23;100.00
55277;BME280;41136;51.478;-2.610;2023-08-08T00:46:44;100875.18;;;16.97;100.00
55277;BME280;41136;51.478;-2.610;2023-08-08T00:49:10;100873.26;;;17.71;100.00
55277;BME280;41136;51.478;-2.610;2023-08-08T00:51:35;100875.50;;;17.54;100.00
55277;BME280;41136;51.478;-2.610;2023-08-08T00:54:01;100873.96;;;17.35;100.00
55277;BME280;41136;51.478;-2.610;2023-08-08T00:56:26;100877.58;;;17.36;100.00
55277;BME280;41136;51.478;-2.610;2023-08-08T00:58:51;100874.81;;;17.09;100.00
55277;BME280;41136;51.478;-2.610;2023-08-08T01:01:17;100877.26;;;17.42;100.00
55277;BME280;41136;51.478;-2.610;2023-08-08T01:03:42;100871.28;;;16.89;100.00
55277;BME280;41136;51.478;-2.610;2023-08-08T01:06:13;100870.02;;;17.14;100.00
55277;BME280;41136;51.478;-2.610;2023-08-08T01:08:38;100867.14;;;17.46;100.00
55277;BME280;41136;51.478;-2.610;2023-08-08T01:10:58;100868.66;;;17.68;100.00
55277;BME280;41136;51.478;-2.610;2023-08-08T01:13:25;100865.58;;;17.38;100.00
55277;BME280;41136;51.478;-2.610;2023-08-08T01:15:49;100864.36;;;17.84;100.00
55277;BME280;41136;51.478;-2.610;2023-08-08T01:18:14;100863.56;;;17.98;100.00
55277;BME280;41136;51.478;-2.610;2023-08-08T01:20:39;100865.53;;;17.58;100.00
55277;BME280;41136;51.478;-2.610;2023-08-08T01:23:10;100861.58;;;17.33;100.00
55277;BME280;41136;51.478;-2.610;2023-08-08T01:25:30;100864.45;;;17.35;100.00
55277;BME280;41136;51.478;-2.610;2023-08-08T01:27:55;100856.43;;;17.25;100.00
55277;BME280;41136;51.478;-2.610;2023-08-08T01:35:46;100837.61;;;17.71;99.62
55277;BME280;41136;51.478;-2.610;2023-08-08T01:38:12;100834.72;;;17.58;100.00
55277;BME280;41136;51.478;-2.610;2023-08-08T01:40:35;100833.11;;;17.87;98.94
55277;BME280;41136;51.478;-2.610;2023-08-08T01:42:59;100830.24;;;17.10;100.00
55277;BME280;41136;51.478;-2.610;2023-08-08T01:45:24;100830.81;;;17.80;100.00
55277;BME280;41136;51.478;-2.610;2023-08-08T01:47:50;100829.35;;;17.32;100.00
55277;BME280;41136;51.478;-2.610;2023-08-08T01:50:15;100830.60;;;17.80;100.00
55277;BME280;41136;51.478;-2.610;2023-08-08T01:52:40;100834.90;;;17.50;100.00
55277;BME280;41136;51.478;-2.610;2023-08-08T01:55:06;100832.56;;;17.44;100.00
55277;BME280;41136;51.478;-2.610;2023-08-08T01:57:31;100830.88;;;17.22;100.00
55277;BME280;41136;51.478;-2.610;2023-08-08T01:59:56;100822.83;;;17.91;100.00
55277;BME280;41136;51.478;-2.610;2023-08-08T02:02:21;100819.30;;;17.16;100.00
55277;BME280;41136;51.478;-2.610;2023-08-08T02:04:46;100819.33;;;18.09;100.00
55277;BME280;41136;51.478;-2.610;2023-08-08T02:07:12;100822.45;;;17.89;100.00
55277;BME280;41136;51.478;-2.610;2023-08-08T02:09:37;100824.52;;;17.82;100.00
55277;BME280;41136;51.478;-2.610;2023-08-08T02:12:03;100824.63;;;17.73;100.00
55277;BME280;41136;51.478;-2.610;2023-08-08T02:14:27;100822.77;;;17.98;100.00
55277;BME280;41136;51.478;-2.610;2023-08-08T02:16:53;100825.54;;;17.78;100.00
55277;BME280;41136;51.478;-2.610;2023-08-08T02:19:18;100826.24;;;17.36;100.00
55277;BME280;41136;51.478;-2.610;2023-08-08T02:21:43;100830.72;;;16.79;100.00
55277;BME280;41136;51.478;-2.610;2023-08-08T02:24:09;100833.14;;;17.07;100.00
55277;BME280;41136;51.478;-2.610;2023-08-08T02:26:34;100836.58;;;16.45;100.00
55277;BME280;41136;51.478;-2.610;2023-08-08T02:28:59;100833.06;;;17.41;100.00
55277;BME280;41136;51.478;-2.610;2023-08-08T02:31:24;100824.61;;;17.46;100.00
55277;BME280;41136;51.478;-2.610;2023-08-08T02:33:50;100819.19;;;18.17;100.00
55277;BME280;41136;51.478;-2.610;2023-08-08T02:36:15;100814.67;;;17.57;100.00
55277;BME280;41136;51.478;-2.610;2023-08-08T02:38:45;100806.61;;;17.59;100.00
55277;BME280;41136;51.478;-2.610;2023-08-08T02:41:06;100803.82;;;18.03;100.00
55277;BME280;41136;51.478;-2.610;2023-08-08T02:43:31;100804.02;;;17.92;100.00
55277;BME280;41136;51.478;-2.610;2023-08-08T02:45:56;100802.54;;;18.27;100.00
55277;BME280;41136;51.478;-2.610;2023-08-08T02:48:21;100797.24;;;17.52;100.00
55277;BME280;41136;51.478;-2.610;2023-08-08T02:50:47;100794.79;;;17.47;100.00
55277;BME280;41136;51.478;-2.610;2023-08-08T02:53:12;100794.61;;;18.31;100.00
55277;BME280;41136;51.478;-2.610;2023-08-08T02:55:37;100801.30;;;17.29;100.00
55277;BME280;41136;51.478;-2.610;2023-08-08T02:58:03;100796.92;;;18.11;100.00
55277;BME280;41136;51.478;-2.610;2023-08-08T03:00:28;100796.11;;;18.07;100.00
55277;BME280;41136;51.478;-2.610;2023-08-08T03:02:53;100794.38;;;18.18;100.00
55277;BME280;41136;51.478;-2.610;2023-08-08T03:05:18;100795.93;;;17.72;100.00
55277;BME280;41136;51.478;-2.610;2023-08-08T03:07:44;100798.23;;;17.21;100.00
55277;BME280;41136;51.478;-2.610;2023-08-08T03:10:09;100801.12;;;17.42;100.00
55277;BME280;41136;51.478;-2.610;2023-08-08T03:12:34;100799.35;;;18.22;100.00
55277;BME280;41136;51.478;-2.610;2023-08-08T03:14:59;100791.65;;;18.06;100.00
55277;BME280;41136;51.478;-2.610;2023-08-08T03:17:25;100789.32;;;17.99;100.00
55277;BME280;41136;51.478;-2.610;2023-08-08T03:19:50;100792.13;;;17.50;100.00
55277;BME280;41136;51.478;-2.610;2023-08-08T03:22:15;100791.09;;;17.98;100.00
55277;BME280;41136;51.478;-2.610;2023-08-08T03:24:41;100787.93;;;17.59;100.00
55277;BME280;41136;51.478;-2.610;2023-08-08T03:27:06;100788.18;;;17.67;100.00
55277;BME280;41136;51.478;-2.610;2023-08-08T03:29:31;100784.46;;;17.60;100.00
55277;BME280;41136;51.478;-2.610;2023-08-08T03:31:56;100778.59;;;18.15;100.00
55277;BME280;41136;51.478;-2.610;2023-08-08T03:34:22;100781.51;;;18.17;100.00
55277;BME280;41136;51.478;-2.610;2023-08-08T03:36:48;100785.19;;;18.14;100.00
55277;BME280;41136;51.478;-2.610;2023-08-08T03:39:13;100784.88;;;18.31;100.00
55277;BME280;41136;51.478;-2.610;2023-08-08T03:41:38;100783.09;;;18.06;100.00
55277;BME280;41136;51.478;-2.610;2023-08-08T03:44:04;100779.06;;;17.58;100.00
55277;BME280;41136;51.478;-2.610;2023-08-08T03:46:29;100780.04;;;18.03;100.00
55277;BME280;41136;51.478;-2.610;2023-08-08T03:48:54;100776.34;;;18.28;100.00
55277;BME280;41136;51.478;-2.610;2023-08-08T03:51:19;100774.85;;;18.35;100.00
55277;BME280;41136;51.478;-2.610;2023-08-08T03:53:44;100777.66;;;18.44;100.00
55277;BME280;41136;51.478;-2.610;2023-08-08T03:56:10;100781.91;;;17.83;100.00
55277;BME280;41136;51.478;-2.610;2023-08-08T03:58:35;100777.35;;;18.39;100.00
55277;BME280;41136;51.478;-2.610;2023-08-08T04:01:00;100774.75;;;18.10;100.00
55277;BME280;41136;51.478;-2.610;2023-08-08T04:03:26;100770.34;;;18.25;100.00
55277;BME280;41136;51.478;-2.610;2023-08-08T04:05:51;100772.22;;;18.28;100.00
55277;BME280;41136;51.478;-2.610;2023-08-08T04:08:17;100770.45;;;18.28;100.00
55277;BME280;41136;51.478;-2.610;2023-08-08T04:10:42;100765.60;;;18.40;100.00
55277;BME280;41136;51.478;-2.610;2023-08-08T04:14:32;100763.70;;;17.99;100.00
55277;BME280;41136;51.478;-2.610;2023-08-08T04:16:57;100762.43;;;18.21;100.00
55277;BME280;41136;51.478;-2.610;2023-08-08T04:19:22;100762.60;;;17.91;100.00
55277;BME280;41136;51.478;-2.610;2023-08-08T04:21:47;100762.72;;;18.01;100.00
55277;BME280;41136;51.478;-2.610;2023-08-08T04:24:12;100759.88;;;18.43;100.00
55277;BME280;41136;51.478;-2.610;2023-08-08T04:26:38;100756.26;;;18.68;100.00
55277;BME280;41136;51.478;-2.610;2023-08-08T04:29:03;100757.28;;;18.84;100.00
55277;BME280;41136;51.478;-2.610;2023-08-08T04:31:29;100756.75;;;18.30;100.00
55277;BME280;41136;51.478;-2.610;2023-08-08T04:33:54;100756.13;;;17.97;100.00
55277;BME280;41136;51.478;-2.610;2023-08-08T04:36:19;100758.88;;;18.25;100.00
55277;BME280;41136;51.478;-2.610;2023-08-08T04:38:45;100754.98;;;18.23;100.00
55277;BME280;41136;51.478;-2.610;2023-08-08T04:41:10;100749.59;;;18.56;100.00
55277;BME280;41136;51.478;-2.610;2023-08-08T04:43:35;100748.71;;;18.12;100.00
55277;BME280;41136;51.478;-2.610;2023-08-08T04:46:01;100744.10;;;18.46;100.00
55277;BME280;41136;51.478;-2.610;2023-08-08T04:48:26;100744.79;;;18.27;100.00
55277;BME280;41136;51.478;-2.610;2023-08-08T04:50:51;100742.04;;;18.49;100.00
55277;BME280;41136;51.478;-2.610;2023-08-08T04:53:16;100740.98;;;18.66;100.00
55277;BME280;41136;51.478;-2.610;2023-08-08T04:55:42;100736.93;;;19.07;100.00
55277;BME280;41136;51.478;-2.610;2023-08-08T04:58:07;100741.17;;;18.79;100.00
55277;BME280;41136;51.478;-2.610;2023-08-08T05:00:32;100737.76;;;18.18;100.00
55277;BME280;41136;51.478;-2.610;2023-08-08T05:02:58;100736.23;;;18.97;100.00
55277;BME280;41136;51.478;-2.610;2023-08-08T05:05:23;100738.91;;;18.32;100.00
55277;BME280;41136;51.478;-2.610;2023-08-08T05:07:48;100742.81;;;18.82;100.00
55277;BME280;41136;51.478;-2.610;2023-08-08T05:10:14;100741.04;;;18.41;100.00
55277;BME280;41136;51.478;-2.610;2023-08-08T05:12:39;100739.96;;;18.80;100.00
55277;BME280;41136;51.478;-2.610;2023-08-08T05:15:05;100740.24;;;18.14;100.00
55277;BME280;41136;51.478;-2.610;2023-08-08T05:17:30;100741.40;;;18.60;100.00
55277;BME280;41136;51.478;-2.610;2023-08-08T05:19:55;100738.79;;;18.85;100.00
55277;BME280;41136;51.478;-2.610;2023-08-08T05:22:20;100734.60;;;18.80;100.00
55277;BME280;41136;51.478;-2.610;2023-08-08T05:24:45;100729.81;;;19.11;100.00
55277;BME280;41136;51.478;-2.610;2023-08-08T05:27:11;100726.47;;;18.52;100.00
55277;BME280;41136;51.478;-2.610;2023-08-08T05:29:36;100724.47;;;18.86;100.00
55277;BME280;41136;51.478;-2.610;2023-08-08T05:32:01;100722.20;;;18.34;100.00
55277;BME280;41136;51.478;-2.610;2023-08-08T05:34:26;100721.95;;;18.18;100.00
55277;BME280;41136;51.478;-2.610;2023-08-08T05:36:52;100718.57;;;18.18;100.00
55277;BME280;41136;51.478;-2.610;2023-08-08T05:39:17;100712.49;;;18.69;100.00
55277;BME280;41136;51.478;-2.610;2023-08-08T05:41:42;100711.09;;;18.57;100.00
55277;BME280;41136;51.478;-2.610;2023-08-08T05:44:08;100712.37;;;18.28;100.00
55277;BME280;41136;51.478;-2.610;2023-08-08T05:46:33;100708.57;;;18.18;100.00
55277;BME280;41136;51.478;-2.610;2023-08-08T05:48:58;100708.11;;;18.18;100.00
55277;BME280;41136;51.478;-2.610;2023-08-08T05:51:23;100706.61;;;18.18;100.00
55277;BME280;41136;51.478;-2.610;2023-08-08T05:53:49;100709.20;;;18.20;100.00
55277;BME280;41136;51.478;-2.610;2023-08-08T05:56:14;100716.54;;;18.10;100.00
55277;BME280;41136;51.478;-2.610;2023-08-08T05:58:39;100718.27;;;18.46;100.00
55277;BME280;41136;51.478;-2.610;2023-08-08T06:01:05;100718.26;;;18.29;100.00
55277;BME280;41136;51.478;-2.610;2023-08-08T06:03:30;100711.83;;;18.39;100.00
55277;BME280;41136;51.478;-2.610;2023-08-08T06:05:55;100707.25;;;18.35;100.00
55277;BME280;41136;51.478;-2.610;2023-08-08T06:08:20;100712.96;;;18.58;100.00
55277;BME280;41136;51.478;-2.610;2023-08-08T06:10:46;100711.65;;;18.88;100.00
55277;BME280;41136;51.478;-2.610;2023-08-08T06:13:11;100707.99;;;18.75;100.00
55277;BME280;41136;51.478;-2.610;2023-08-08T06:15:36;100707.63;;;18.71;100.00
55277;BME280;41136;51.478;-2.610;2023-08-08T06:18:02;100706.72;;;18.58;100.00
55277;BME280;41136;51.478;-2.610;2023-08-08T06:20:27;100700.04;;;18.66;100.00
55277;BME280;41136;51.478;-2.610;2023-08-08T06:22:52;100701.97;;;19.07;100.00
55277;BME280;41136;51.478;-2.610;2023-08-08T06:25:17;100697.68;;;18.89;100.00
55277;BME280;41136;51.478;-2.610;2023-08-08T06:27:43;100697.92;;;18.82;100.00
55277;BME280;41136;51.478;-2.610;2023-08-08T06:30:08;100695.18;;;18.42;100.00
55277;BME280;41136;51.478;-2.610;2023-08-08T06:32:33;100696.81;;;18.84;100.00
55277;BME280;41136;51.478;-2.610;2023-08-08T06:34:58;100694.19;;;18.84;100.00
55277;BME280;41136;51.478;-2.610;2023-08-08T06:37:24;100694.37;;;18.27;100.00
55277;BME280;41136;51.478;-2.610;2023-08-08T06:39:49;100697.05;;;18.57;100.00
55277;BME280;41136;51.478;-2.610;2023-08-08T06:42:14;100696.74;;;18.65;100.00
55277;BME280;41136;51.478;-2.610;2023-08-08T06:44:42;100698.23;;;18.64;100.00
55277;BME280;41136;51.478;-2.610;2023-08-08T06:47:05;100698.90;;;18.46;100.00
55277;BME280;41136;51.478;-2.610;2023-08-08T06:49:30;100699.80;;;18.92;100.00
55277;BME280;41136;51.478;-2.610;2023-08-08T06:51:56;100697.77;;;19.06;100.00
55277;BME280;41136;51.478;-2.610;2023-08-08T06:54:21;100695.72;;;18.69;100.00
55277;BME280;41136;51.478;-2.610;2023-08-08T06:56:46;100694.38;;;18.69;100.00
55277;BME280;41136;51.478;-2.610;2023-08-08T06:59:11;100694.22;;;18.82;100.00
55277;BME280;41136;51.478;-2.610;2023-08-08T07:01:36;100693.09;;;18.77;100.00
55277;BME280;41136;51.478;-2.610;2023-08-08T07:04:02;100693.10;;;18.43;100.00
55277;BME280;41136;51.478;-2.610;2023-08-08T07:06:27;100695.52;;;18.98;100.00
55277;BME280;41136;51.478;-2.610;2023-08-08T07:08:52;100690.44;;;18.64;100.00
55277;BME280;41136;51.478;-2.610;2023-08-08T07:11:18;100685.77;;;18.84;100.00
55277;BME280;41136;51.478;-2.610;2023-08-08T07:13:43;100688.12;;;18.68;100.00
55277;BME280;41136;51.478;-2.610;2023-08-08T07:16:08;100687.01;;;18.90;100.00
55277;BME280;41136;51.478;-2.610;2023-08-08T07:18:34;100682.44;;;19.22;100.00
55277;BME280;41136;51.478;-2.610;2023-08-08T07:20:59;100682.60;;;18.78;100.00
55277;BME280;41136;51.478;-2.610;2023-08-08T07:23:24;100684.49;;;18.96;100.00
55277;BME280;41136;51.478;-2.610;2023-08-08T07:25:49;100677.28;;;18.72;100.00
55277;BME280;41136;51.478;-2.610;2023-08-08T07:28:14;100674.66;;;18.70;100.00
55277;BME280;41136;51.478;-2.610;2023-08-08T07:30:40;100668.75;;;18.50;100.00
55277;BME280;41136;51.478;-2.610;2023-08-08T07:33:05;100661.39;;;17.69;100.00
55277;BME280;41136;51.478;-2.610;2023-08-08T07:35:30;100660.30;;;18.90;100.00
55277;BME280;41136;51.478;-2.610;2023-08-08T07:37:55;100663.31;;;18.55;100.00
55277;BME280;41136;51.478;-2.610;2023-08-08T07:40:21;100667.38;;;18.61;100.00
55277;BME280;41136;51.478;-2.610;2023-08-08T07:42:47;100668.29;;;18.59;100.00
55277;BME280;41136;51.478;-2.610;2023-08-08T07:45:17;100670.22;;;18.74;100.00
55277;BME280;41136;51.478;-2.610;2023-08-08T07:47:37;100658.39;;;18.77;100.00
55277;BME280;41136;51.478;-2.610;2023-08-08T07:50:02;100650.29;;;18.42;100.00
55277;BME280;41136;51.478;-2.610;2023-08-08T07:52:27;100648.12;;;18.28;100.00
55277;BME280;41136;51.478;-2.610;2023-08-08T07:54:52;100647.59;;;18.20;100.00
55277;BME280;41136;51.478;-2.610;2023-08-08T07:57:18;100648.41;;;18.43;100.00
55277;BME280;41136;51.478;-2.610;2023-08-08T07:59:43;100643.72;;;18.80;100.00
55277;BME280;41136;51.478;-2.610;2023-08-08T08:02:08;100642.69;;;18.58;100.00
55277;BME280;41136;51.478;-2.610;2023-08-08T08:04:33;100637.87;;;18.72;100.00
55277;BME280;41136;51.478;-2.610;2023-08-08T08:06:59;100641.21;;;19.15;100.00
55277;BME280;41136;51.478;-2.610;2023-08-08T08:09:24;100637.75;;;19.11;100.00
55277;BME280;41136;51.478;-2.610;2023-08-08T08:11:49;100637.62;;;18.90;100.00
55277;BME280;41136;51.478;-2.610;2023-08-08T08:14:14;100639.25;;;18.63;100.00
55277;BME280;41136;51.478;-2.610;2023-08-08T08:16:40;100640.99;;;18.59;100.00
55277;BME280;41136;51.478;-2.610;2023-08-08T08:19:05;100637.60;;;18.35;100.00
55277;BME280;41136;51.478;-2.610;2023-08-08T08:21:30;100643.18;;;18.45;100.00
55277;BME280;41136;51.478;-2.610;2023-08-08T08:23:56;100642.00;;;18.46;100.00
55277;BME280;41136;51.478;-2.610;2023-08-08T08:26:21;100639.51;;;18.78;100.00
55277;BME280;41136;51.478;-2.610;2023-08-08T08:28:46;100635.62;;;18.92;100.00
55277;BME280;41136;51.478;-2.610;2023-08-08T08:31:11;100636.18;;;18.69;100.00
55277;BME280;41136;51.478;-2.610;2023-08-08T08:33:37;100637.66;;;18.56;100.00
55277;BME280;41136;51.478;-2.610;2023-08-08T08:36:02;100638.03;;;18.50;100.00
55277;BME280;41136;51.478;-2.610;2023-08-08T08:38:27;100637.61;;;18.69;100.00
55277;BME280;41136;51.478;-2.610;2023-08-08T08:40:54;100639.77;;;18.96;100.00
55277;BME280;41136;51.478;-2.610;2023-08-08T08:43:18;100638.70;;;18.44;100.00
55277;BME280;41136;51.478;-2.610;2023-08-08T08:45:49;100639.47;;;19.00;100.00
55277;BME280;41136;51.478;-2.610;2023-08-08T08:48:10;100638.82;;;18.89;100.00
55277;BME280;41136;51.478;-2.610;2023-08-08T08:50:34;100642.84;;;19.28;100.00
55277;BME280;41136;51.478;-2.610;2023-08-08T08:52:59;100643.54;;;19.20;100.00
55277;BME280;41136;51.478;-2.610;2023-08-08T08:55:24;100638.88;;;19.31;100.00
55277;BME280;41136;51.478;-2.610;2023-08-08T08:57:50;100636.01;;;19.26;100.00
55277;BME280;41136;51.478;-2.610;2023-08-08T09:00:15;100635.63;;;18.98;100.00
55277;BME280;41136;51.478;-2.610;2023-08-08T09:02:40;100631.50;;;18.87;100.00
55277;BME280;41136;51.478;-2.610;2023-08-08T09:05:05;100630.13;;;18.93;100.00
55277;BME280;41136;51.478;-2.610;2023-08-08T09:07:32;100627.85;;;18.97;100.00
55277;BME280;41136;51.478;-2.610;2023-08-08T09:09:55;100624.38;;;19.45;100.00
55277;BME280;41136;51.478;-2.610;2023-08-08T09:12:21;100622.97;;;19.49;100.00
55277;BME280;41136;51.478;-2.610;2023-08-08T09:14:54;100619.75;;;19.43;100.00
55277;BME280;41136;51.478;-2.610;2023-08-08T09:17:12;100615.38;;;19.80;100.00
55277;BME280;41136;51.478;-2.610;2023-08-08T09:19:37;100609.61;;;19.97;100.00
55277;BME280;41136;51.478;-2.610;2023-08-08T09:22:02;100610.93;;;19.33;100.00
55277;BME280;41136;51.478;-2.610;2023-08-08T09:24:27;100606.30;;;19.46;100.00
55277;BME280;41136;51.478;-2.610;2023-08-08T09:26:52;100606.04;;;19.95;100.00
55277;BME280;41136;51.478;-2.610;2023-08-08T09:29:18;100602.46;;;19.62;100.00
55277;BME280;41136;51.478;-2.610;2023-08-08T09:31:43;100602.21;;;19.52;100.00
55277;BME280;41136;51.478;-2.610;2023-08-08T09:34:08;100599.64;;;19.53;100.00
55277;BME280;41136;51.478;-2.610;2023-08-08T09:36:34;100592.77;;;19.80;100.00
55277;BME280;41136;51.478;-2.610;2023-08-08T09:38:59;100595.90;;;19.62;100.00
55277;BME280;41136;51.478;-2.610;2023-08-08T09:41:24;100597.24;;;19.47;100.00
55277;BME280;41136;51.478;-2.610;2023-08-08T09:43:50;100593.69;;;19.95;100.00
55277;BME280;41136;51.478;-2.610;2023-08-08T09:46:15;100587.54;;;19.79;100.00
55277;BME280;41136;51.478;-2.610;2023-08-08T09:48:40;100583.11;;;20.11;100.00
55277;BME280;41136;51.478;-2.610;2023-08-08T09:51:06;100580.46;;;19.88;100.00
55277;BME280;41136;51.478;-2.610;2023-08-08T09:53:31;100577.31;;;20.01;100.00
55277;BME280;41136;51.478;-2.610;2023-08-08T09:55:56;100578.81;;;20.18;100.00
55277;BME280;41136;51.478;-2.610;2023-08-08T09:58:21;100579.89;;;20.11;100.00
55277;BME280;41136;51.478;-2.610;2023-08-08T10:00:46;100579.71;;;20.28;100.00
55277;BME280;41136;51.478;-2.610;2023-08-08T10:03:11;100580.13;;;20.51;100.00
55277;BME280;41136;51.478;-2.610;2023-08-08T10:05:37;100581.55;;;19.54;100.00
55277;BME280;41136;51.478;-2.610;2023-08-08T10:08:02;100581.27;;;20.23;100.00
55277;BME280;41136;51.478;-2.610;2023-08-08T10:10:28;100584.60;;;19.21;100.00
55277;BME280;41136;51.478;-2.610;2023-08-08T10:12:52;100587.63;;;19.32;100.00
55277;BME280;41136;51.478;-2.610;2023-08-08T10:15:18;100585.09;;;19.80;100.00
55277;BME280;41136;51.478;-2.610;2023-08-08T10:17:43;100580.78;;;19.75;100.00
55277;BME280;41136;51.478;-2.610;2023-08-08T10:20:10;100575.82;;;20.18;100.00
55277;BME280;41136;51.478;-2.610;2023-08-08T10:22:33;100570.03;;;20.46;100.00
55277;BME280;41136;51.478;-2.610;2023-08-08T10:25:03;100566.01;;;20.05;100.00
55277;BME280;41136;51.478;-2.610;2023-08-08T10:27:28;100564.57;;;20.18;100.00
55277;BME280;41136;51.478;-2.610;2023-08-08T10:29:51;100564.90;;;19.26;100.00
55277;BME280;41136;51.478;-2.610;2023-08-08T10:32:22;100562.17;;;19.53;100.00
55277;BME280;41136;51.478;-2.610;2023-08-08T10:34:41;100559.49;;;20.08;100.00
55277;BME280;41136;51.478;-2.610;2023-08-08T10:37:08;100561.31;;;20.07;100.00
55277;BME280;41136;51.478;-2.610;2023-08-08T10:39:31;100560.51;;;19.91;100.00
55277;BME280;41136;51.478;-2.610;2023-08-08T10:42:01;100563.79;;;20.07;100.00
55277;BME280;41136;51.478;-2.610;2023-08-08T10:44:22;100565.82;;;19.84;100.00
55277;BME280;41136;51.478;-2.610;2023-08-08T10:46:46;100573.32;;;19.79;100.00
55277;BME280;41136;51.478;-2.610;2023-08-08T10:49:12;100579.41;;;20.09;100.00
55277;BME280;41136;51.478;-2.610;2023-08-08T10:51:38;100584.11;;;19.55;100.00
55277;BME280;41136;51.478;-2.610;2023-08-08T10:54:04;100583.80;;;20.25;100.00
55277;BME280;41136;51.478;-2.610;2023-08-08T10:56:30;100574.64;;;19.99;100.00
55277;BME280;41136;51.478;-2.610;2023-08-08T10:58:52;100570.75;;;20.76;100.00
55277;BME280;41136;51.478;-2.610;2023-08-08T11:01:17;100567.07;;;19.42;100.00
55277;BME280;41136;51.478;-2.610;2023-08-08T11:03:44;100560.78;;;19.56;100.00
55277;BME280;41136;51.478;-2.610;2023-08-08T11:06:09;100558.04;;;19.80;100.00
55277;BME280;41136;51.478;-2.610;2023-08-08T11:08:34;100553.96;;;19.80;100.00
55277;BME280;41136;51.478;-2.610;2023-08-08T11:11:04;100546.61;;;19.95;100.00
55277;BME280;41136;51.478;-2.610;2023-08-08T11:13:24;100545.64;;;20.01;100.00
55277;BME280;41136;51.478;-2.610;2023-08-08T11:15:49;100542.77;;;20.27;100.00
55277;BME280;41136;51.478;-2.610;2023-08-08T11:18:14;100539.99;;;20.40;100.00
55277;BME280;41136;51.478;-2.610;2023-08-08T11:20:40;100538.41;;;20.25;100.00
55277;BME280;41136;51.478;-2.610;2023-08-08T11:23:05;100533.67;;;20.41;100.00
55277;BME280;41136;51.478;-2.610;2023-08-08T11:25:30;100531.13;;;20.23;100.00
55277;BME280;41136;51.478;-2.610;2023-08-08T11:27:56;100533.50;;;19.86;100.00
55277;BME280;41136;51.478;-2.610;2023-08-08T11:30:22;100540.49;;;20.19;100.00
55277;BME280;41136;51.478;-2.610;2023-08-08T11:32:47;100543.99;;;20.02;100.00
55277;BME280;41136;51.478;-2.610;2023-08-08T11:35:11;100542.78;;;20.82;100.00
55277;BME280;41136;51.478;-2.610;2023-08-08T11:37:36;100542.70;;;20.15;100.00
55277;BME280;41136;51.478;-2.610;2023-08-08T11:40:02;100543.99;;;20.97;100.00
55277;BME280;41136;51.478;-2.610;2023-08-08T11:42:27;100546.61;;;19.73;100.00
55277;BME280;41136;51.478;-2.610;2023-08-08T11:44:52;100543.40;;;20.43;100.00
55277;BME280;41136;51.478;-2.610;2023-08-08T11:47:17;100544.67;;;20.52;100.00
55277;BME280;41136;51.478;-2.610;2023-08-08T11:49:42;100547.07;;;20.08;100.00
55277;BME280;41136;51.478;-2.610;2023-08-08T11:52:08;100539.47;;;19.78;100.00
55277;BME280;41136;51.478;-2.610;2023-08-08T11:54:33;100533.85;;;20.46;100.00
55277;BME280;41136;51.478;-2.610;2023-08-08T11:56:59;100540.88;;;19.98;100.00
55277;BME280;41136;51.478;-2.610;2023-08-08T11:59:23;100541.41;;;20.17;100.00
55277;BME280;41136;51.478;-2.610;2023-08-08T12:01:49;100539.54;;;20.42;100.00
55277;BME280;41136;51.478;-2.610;2023-08-08T12:04:14;100532.08;;;20.55;100.00
55277;BME280;41136;51.478;-2.610;2023-08-08T12:06:40;100534.82;;;19.89;100.00
55277;BME280;41136;51.478;-2.610;2023-08-08T12:09:05;100531.22;;;19.89;100.00
55277;BME280;41136;51.478;-2.610;2023-08-08T12:11:30;100521.45;;;20.95;100.00
55277;BME280;41136;51.478;-2.610;2023-08-08T12:13:59;100514.66;;;20.60;100.00
55277;BME280;41136;51.478;-2.610;2023-08-08T12:16:20;100516.70;;;20.32;100.00
55277;BME280;41136;51.478;-2.610;2023-08-08T12:18:45;100514.08;;;20.32;100.00
55277;BME280;41136;51.478;-2.610;2023-08-08T12:21:10;100514.48;;;20.01;100.00
55277;BME280;41136;51.478;-2.610;2023-08-08T12:23:36;100514.52;;;20.28;100.00
55277;BME280;41136;51.478;-2.610;2023-08-08T12:26:04;100513.53;;;20.39;100.00